createdAt,value
2022-11-08T00:00:18.598Z,9.711494
2022-11-08T00:01:18.602Z,9.711470
2022-11-08T00:02:18.711Z,9.711540
2022-11-08T00:03:18.656Z,9.711337
2022-11-08T00:04:18.567Z,9.711338
2022-11-08T00:05:18.557Z,9.711286
2022-11-08T00:06:18.562Z,9.711122
2022-11-08T00:07:18.541Z,9.711176
2022-11-08T00:08:18.964Z,9.711162
2022-11-08T00:09:18.532Z,9.711811
2022-11-08T00:10:18.525Z,9.712463
2022-11-08T00:11:18.510Z,9.712885
2022-11-08T00:12:18.515Z,9.712951
2022-11-08T00:13:22.378Z,9.712962
2022-11-08T00:14:18.491Z,9.712680
2022-11-08T00:15:19.416Z,9.712403
2022-11-08T00:16:18.474Z,9.712644
2022-11-08T00:17:18.473Z,9.712665
2022-11-08T00:18:18.814Z,9.712602
2022-11-08T00:19:18.474Z,9.712465
2022-11-08T00:20:18.447Z,9.712727
2022-11-08T00:21:18.443Z,9.712369
2022-11-08T00:22:18.441Z,9.712011
2022-11-08T00:23:18.422Z,9.711925
2022-11-08T00:24:18.419Z,9.711675
2022-11-08T00:25:18.406Z,9.711512
2022-11-08T00:26:18.470Z,9.711603
2022-11-08T00:27:18.411Z,9.711672
2022-11-08T00:31:19.723Z,9.711848
2022-11-08T00:32:19.722Z,9.711124
2022-11-08T00:33:19.726Z,9.711094
2022-11-08T00:34:19.686Z,9.711597
2022-11-08T00:35:19.684Z,9.711558
2022-11-08T00:36:19.677Z,9.711582
2022-11-08T00:37:19.668Z,9.711619
2022-11-08T00:38:19.906Z,9.711598
2022-11-08T00:39:21.573Z,9.711643
2022-11-08T00:40:19.647Z,9.711626
2022-11-08T00:41:25.570Z,9.711564
2022-11-08T00:42:20.498Z,9.711551
2022-11-08T00:43:19.619Z,9.711495
2022-11-08T00:44:19.612Z,9.711453
2022-11-08T00:45:19.622Z,9.711473
2022-11-08T00:46:19.603Z,9.711532
2022-11-08T00:47:19.592Z,9.711660
2022-11-08T00:48:21.494Z,9.711714
2022-11-08T00:49:19.584Z,9.711607
2022-11-08T00:50:19.560Z,9.711620
2022-11-08T00:51:19.598Z,9.711588
2022-11-08T00:52:21.491Z,9.711554
2022-11-08T00:53:19.540Z,9.711638
2022-11-08T00:54:19.527Z,9.711639
2022-11-08T00:55:19.563Z,9.711700
2022-11-08T00:56:19.511Z,9.711591
2022-11-08T00:57:22.341Z,9.711622
2022-11-08T00:58:26.216Z,9.711600
2022-11-08T00:59:21.481Z,9.711684
2022-11-08T01:00:19.480Z,9.711674
2022-11-08T01:01:19.596Z,9.711627
2022-11-08T01:02:19.558Z,9.711588
2022-11-08T01:03:19.464Z,9.711617
2022-11-08T01:04:19.458Z,9.711639
2022-11-08T01:05:19.461Z,9.711660
2022-11-08T01:06:19.443Z,9.711614
2022-11-08T01:07:19.433Z,9.711666
2022-11-08T01:08:19.747Z,9.711627
2022-11-08T01:09:19.420Z,9.711596
2022-11-08T01:10:19.403Z,9.711572
2022-11-08T01:11:19.413Z,9.711678
2022-11-08T01:12:19.387Z,9.711620
2022-11-08T01:13:19.391Z,9.711688
2022-11-08T01:14:19.373Z,9.711626
2022-11-08T01:15:19.399Z,9.711598
2022-11-08T01:16:19.363Z,9.711576
2022-11-08T01:17:19.355Z,9.711611
2022-11-08T01:18:19.667Z,9.711588
2022-11-08T01:19:20.031Z,9.711575
2022-11-08T01:20:21.077Z,9.711584
2022-11-08T01:21:19.406Z,9.711724
2022-11-08T01:22:19.315Z,9.711589
2022-11-08T01:23:19.334Z,9.711479
2022-11-08T01:24:19.281Z,9.711625
2022-11-08T01:25:20.277Z,9.711720
2022-11-08T01:26:19.267Z,9.711939
2022-11-08T01:27:19.261Z,9.711790
2022-11-08T01:28:19.667Z,9.711791
2022-11-08T01:29:19.263Z,9.711756
2022-11-08T01:30:20.007Z,9.711634
2022-11-08T01:31:19.235Z,9.711613
2022-11-08T01:32:19.229Z,9.711671
2022-11-08T01:33:19.232Z,9.711849
2022-11-08T01:34:19.222Z,9.711859
2022-11-08T01:35:19.199Z,9.711740
2022-11-08T01:36:19.212Z,9.711733
2022-11-08T01:37:19.188Z,9.711228
2022-11-08T01:38:19.732Z,9.711411
2022-11-08T01:39:19.171Z,9.711612
2022-11-08T01:40:19.165Z,9.711595
2022-11-08T01:41:19.155Z,9.711345
2022-11-08T01:42:19.159Z,9.711511
2022-11-08T01:43:19.151Z,9.711564
2022-11-08T01:44:19.124Z,9.711548
2022-11-08T01:45:19.111Z,9.711873
2022-11-08T01:46:19.108Z,9.711854
2022-11-08T01:47:19.094Z,9.711875
2022-11-08T01:48:19.602Z,9.711818
2022-11-08T01:49:19.111Z,9.711876
2022-11-08T01:50:19.083Z,9.711736
2022-11-08T01:51:19.061Z,9.711679
2022-11-08T01:52:19.057Z,9.711679
2022-11-08T01:53:19.059Z,9.711735
2022-11-08T01:54:20.012Z,9.711750
2022-11-08T01:55:19.037Z,9.711699
2022-11-08T01:56:19.031Z,9.711767
2022-11-08T01:57:19.018Z,9.711672
2022-11-08T01:58:19.310Z,9.711679
2022-11-08T01:59:19.015Z,9.711704
2022-11-08T02:00:18.991Z,9.711691
2022-11-08T02:01:19.074Z,9.711721
2022-11-08T02:02:19.019Z,9.711711
2022-11-08T02:03:18.975Z,9.711714
2022-11-08T02:04:18.982Z,9.711702
2022-11-08T02:05:19.589Z,9.711723
2022-11-08T02:06:18.943Z,9.711695
2022-11-08T02:07:18.960Z,9.711677
2022-11-08T02:08:19.239Z,9.711660
2022-11-08T02:09:18.919Z,9.711695
2022-11-08T02:10:18.926Z,9.711703
2022-11-08T02:11:18.911Z,9.711718
2022-11-08T02:12:18.905Z,9.711682
2022-11-08T02:13:18.892Z,9.711673
2022-11-08T02:14:18.902Z,9.711695
2022-11-08T02:15:18.870Z,9.711701
2022-11-08T02:16:18.867Z,9.711701
2022-11-08T02:17:18.905Z,9.711683
2022-11-08T02:18:19.244Z,9.711658
2022-11-08T02:19:18.870Z,9.711673
2022-11-08T02:20:18.837Z,9.711679
2022-11-08T02:21:18.827Z,9.711684
2022-11-08T02:22:18.822Z,9.711670
2022-11-08T02:23:18.822Z,9.711719
2022-11-08T02:24:18.806Z,9.711747
2022-11-08T02:25:18.792Z,9.711673
2022-11-08T02:26:18.791Z,9.711717
2022-11-08T02:27:18.800Z,9.711660
2022-11-08T02:28:19.107Z,9.711629
2022-11-08T02:29:18.767Z,9.711643
2022-11-08T02:30:18.760Z,9.711635
2022-11-08T02:31:18.754Z,9.711595
2022-11-08T02:32:18.750Z,9.711677
2022-11-08T02:33:18.753Z,9.711670
2022-11-08T02:34:18.724Z,9.711682
2022-11-08T02:35:18.729Z,9.711712
2022-11-08T02:36:18.713Z,9.711679
2022-11-08T02:37:18.704Z,9.711712
2022-11-08T02:38:19.004Z,9.711604
2022-11-08T02:39:18.684Z,9.711631
2022-11-08T02:40:18.688Z,9.711706
2022-11-08T02:41:18.692Z,9.711830
2022-11-08T02:42:18.690Z,9.711818
2022-11-08T02:43:18.661Z,9.711897
2022-11-08T02:44:18.665Z,9.711717
2022-11-08T02:45:18.646Z,9.711831
2022-11-08T02:46:18.638Z,9.712234
2022-11-08T02:47:18.622Z,9.712165
2022-11-08T02:48:19.115Z,9.711901
2022-11-08T02:49:18.645Z,9.711939
2022-11-08T02:50:18.612Z,9.711676
2022-11-08T02:51:18.603Z,9.711621
2022-11-08T02:52:18.583Z,9.712205
2022-11-08T02:53:19.106Z,9.712021
2022-11-08T02:54:18.576Z,9.712161
2022-11-08T02:55:18.553Z,9.711828
2022-11-08T02:56:18.531Z,9.711864
2022-11-08T02:57:19.542Z,9.712253
2022-11-08T02:58:18.862Z,9.712138
2022-11-08T02:59:18.529Z,9.711898
2022-11-08T03:00:18.530Z,9.711702
2022-11-08T03:01:18.614Z,9.712788
2022-11-08T03:02:18.618Z,9.712255
2022-11-08T03:03:18.496Z,9.712073
2022-11-08T03:04:18.491Z,9.712036
2022-11-08T03:05:18.468Z,9.711698
2022-11-08T03:06:18.463Z,9.711578
2022-11-08T03:07:23.689Z,9.711595
2022-11-08T03:08:21.164Z,9.711691
2022-11-08T03:09:18.444Z,9.711606
2022-11-08T03:10:18.428Z,9.711598
2022-11-08T03:11:18.421Z,9.711611
2022-11-08T03:12:18.421Z,9.711613
2022-11-08T03:13:18.400Z,9.711635
2022-11-08T03:14:18.406Z,9.711632
2022-11-08T03:15:18.400Z,9.711596
2022-11-08T03:16:18.378Z,9.711633
2022-11-08T03:17:18.365Z,9.711637
2022-11-08T03:18:18.731Z,9.711614
2022-11-08T03:19:18.352Z,9.711609
2022-11-08T03:20:18.353Z,9.711590
2022-11-08T03:21:18.337Z,9.711582
2022-11-08T03:22:18.326Z,9.711658
2022-11-08T03:23:18.319Z,9.711637
2022-11-08T03:24:18.323Z,9.711590
2022-11-08T03:25:18.312Z,9.711600
2022-11-08T03:26:18.300Z,9.711645
2022-11-08T03:27:19.105Z,9.711635
2022-11-08T03:28:22.654Z,9.711587
2022-11-08T03:29:19.285Z,9.711578
2022-11-08T03:30:18.268Z,9.711531
2022-11-08T03:31:18.262Z,9.711639
2022-11-08T03:32:18.250Z,9.711581
2022-11-08T03:33:18.247Z,9.711550
2022-11-08T03:34:18.237Z,9.711597
2022-11-08T03:35:18.224Z,9.711591
2022-11-08T03:36:18.226Z,9.711498
2022-11-08T03:37:18.203Z,9.711524
2022-11-08T03:38:18.440Z,9.711508
2022-11-08T03:39:18.195Z,9.711425
2022-11-08T03:40:18.181Z,9.711667
2022-11-08T03:41:18.176Z,9.711692
2022-11-08T03:42:18.165Z,9.711627
2022-11-08T03:43:18.154Z,9.711794
2022-11-08T03:44:18.155Z,9.711664
2022-11-08T03:45:18.144Z,9.711644
2022-11-08T03:46:18.143Z,9.711586
2022-11-08T03:47:18.112Z,9.711856
2022-11-08T03:48:19.592Z,9.711809
2022-11-08T03:49:18.111Z,9.711621
2022-11-08T03:50:18.103Z,9.711434
2022-11-08T03:51:18.097Z,9.711837
2022-11-08T03:52:18.077Z,9.711815
2022-11-08T03:53:18.088Z,9.711931
2022-11-08T03:54:18.070Z,9.711788
2022-11-08T03:55:18.061Z,9.711856
2022-11-08T03:56:18.045Z,9.711605
2022-11-08T03:57:19.611Z,9.711452
2022-11-08T03:58:18.252Z,9.711736
2022-11-08T03:59:18.029Z,9.711589
2022-11-08T04:00:18.022Z,9.711699
2022-11-08T04:01:18.092Z,9.711676
2022-11-08T04:02:18.093Z,9.711758
2022-11-08T04:03:17.985Z,9.711665
2022-11-08T04:04:17.987Z,9.711848
2022-11-08T04:05:17.970Z,9.711724
2022-11-08T04:06:17.964Z,9.711784
2022-11-08T04:07:17.960Z,9.711868
2022-11-08T04:08:18.302Z,9.712062
2022-11-08T04:09:21.511Z,9.712144
2022-11-08T04:10:18.943Z,9.712274
2022-11-08T04:11:17.932Z,9.712426
2022-11-08T04:12:17.941Z,9.712294
2022-11-08T04:13:17.913Z,9.712155
2022-11-08T04:14:17.900Z,9.711807
2022-11-08T04:15:17.895Z,9.712047
2022-11-08T04:16:18.124Z,9.712038
2022-11-08T04:17:18.884Z,9.711762
2022-11-08T04:18:18.373Z,9.711931
2022-11-08T04:19:17.857Z,9.711928
2022-11-08T04:20:17.851Z,9.711597
2022-11-08T04:21:17.850Z,9.711697
2022-11-08T04:22:17.848Z,9.711564
2022-11-08T04:23:17.877Z,9.711570
2022-11-08T04:24:17.829Z,9.711591
2022-11-08T04:25:50.085Z,9.711537
2022-11-08T04:26:17.802Z,9.711616
2022-11-08T04:27:17.798Z,9.711533
2022-11-08T04:28:18.024Z,9.711562
2022-11-08T04:29:17.779Z,9.711528
2022-11-08T04:30:17.759Z,9.711659
2022-11-08T04:31:18.761Z,9.711601
2022-11-08T04:32:17.741Z,9.711516
2022-11-08T04:33:17.742Z,9.711628
2022-11-08T04:34:49.948Z,9.711543
2022-11-08T04:35:17.728Z,9.711670
2022-11-08T04:36:19.598Z,9.711592
2022-11-08T04:37:17.722Z,9.711629
2022-11-08T04:38:19.061Z,9.711658
2022-11-08T04:39:17.688Z,9.711747
2022-11-08T04:40:17.677Z,9.711708
2022-11-08T04:41:17.675Z,9.711756
2022-11-08T04:42:17.670Z,9.711679
2022-11-08T04:43:17.734Z,9.711529
2022-11-08T04:44:17.665Z,9.711692
2022-11-08T04:45:17.641Z,9.711711
2022-11-08T04:46:17.634Z,9.711742
2022-11-08T04:47:17.626Z,9.711817
2022-11-08T04:48:17.877Z,9.711751
2022-11-08T04:49:17.605Z,9.711692
2022-11-08T04:50:17.600Z,9.711535
2022-11-08T04:51:17.590Z,9.711663
2022-11-08T04:52:17.598Z,9.711760
2022-11-08T04:53:17.584Z,9.711687
2022-11-08T04:54:18.185Z,9.711733
2022-11-08T04:55:17.571Z,9.711876
2022-11-08T04:56:17.546Z,9.712040
2022-11-08T04:57:17.541Z,9.712079
2022-11-08T04:58:17.872Z,9.711746
2022-11-08T04:59:17.524Z,9.711978
2022-11-08T05:00:18.183Z,9.712628
2022-11-08T05:01:17.713Z,9.712303
2022-11-08T05:02:17.637Z,9.712364
2022-11-08T05:03:20.098Z,9.711763
2022-11-08T05:04:17.498Z,9.712000
2022-11-08T05:05:17.602Z,9.711922
2022-11-08T05:06:17.469Z,9.711963
2022-11-08T05:07:17.469Z,9.711843
2022-11-08T05:08:17.744Z,9.711965
2022-11-08T05:09:19.193Z,9.711982
2022-11-08T05:10:17.450Z,9.711920
2022-11-08T05:11:17.443Z,9.711933
2022-11-08T05:12:17.417Z,9.711736
2022-11-08T05:13:20.107Z,9.711953
2022-11-08T05:14:17.422Z,9.711676
2022-11-08T05:38:25.984Z,9.709482
2022-11-08T05:39:30.972Z,9.711591
2022-11-08T05:40:33.032Z,9.711554
2022-11-08T05:41:27.962Z,9.711683
2022-11-08T05:42:25.956Z,9.711660
2022-11-08T05:43:25.952Z,9.711646
2022-11-08T05:44:27.889Z,9.711693
2022-11-08T05:45:25.977Z,9.711681
2022-11-08T05:46:26.470Z,9.711731
2022-11-08T05:47:25.921Z,9.711702
2022-11-08T05:48:25.918Z,9.711699
2022-11-08T05:49:30.458Z,9.711637
2022-11-08T05:50:25.888Z,9.711633
2022-11-08T05:51:25.888Z,9.711579
2022-11-08T05:52:25.873Z,9.711568
2022-11-08T05:53:27.456Z,9.711519
2022-11-08T05:54:25.869Z,9.711596
2022-11-08T05:55:25.844Z,9.711635
2022-11-08T05:56:25.839Z,9.711616
2022-11-08T05:57:25.830Z,9.711590
2022-11-08T05:58:25.832Z,9.711618
2022-11-08T05:59:25.821Z,9.711660
2022-11-08T06:00:27.455Z,9.711638
2022-11-08T06:01:25.891Z,9.711673
2022-11-08T06:02:25.960Z,9.711710
2022-11-08T06:03:26.152Z,9.711680
2022-11-08T06:04:27.389Z,9.711642
2022-11-08T06:05:25.765Z,9.711676
2022-11-08T06:06:29.417Z,9.711677
2022-11-08T06:07:28.429Z,9.711642
2022-11-08T06:08:25.768Z,9.711600
2022-11-08T06:09:25.736Z,9.711604
2022-11-08T06:10:25.735Z,9.711672
2022-11-08T06:11:25.715Z,9.711741
2022-11-08T06:12:25.722Z,9.711654
2022-11-08T06:13:28.869Z,9.711644
2022-11-08T06:14:25.696Z,9.711773
2022-11-08T06:15:25.686Z,9.711674
2022-11-08T06:16:25.692Z,9.711663
2022-11-08T06:17:26.227Z,9.711810
2022-11-08T06:18:27.668Z,9.711764
2022-11-08T06:19:27.473Z,9.711903
2022-11-08T06:20:25.670Z,9.711892
2022-11-08T06:21:25.662Z,9.711933
2022-11-08T06:22:25.638Z,9.711795
2022-11-08T06:23:25.628Z,9.711734
2022-11-08T06:24:25.626Z,9.711711
2022-11-08T06:25:25.611Z,9.711729
2022-11-08T06:26:25.611Z,9.711702
2022-11-08T06:27:25.601Z,9.711694
2022-11-08T06:28:26.473Z,9.711537
2022-11-08T06:29:25.582Z,9.711565
2022-11-08T06:30:28.464Z,9.711632
2022-11-08T06:31:26.396Z,9.711683
2022-11-08T06:32:29.394Z,9.711601
2022-11-08T06:33:27.393Z,9.711773
2022-11-08T06:34:25.542Z,9.711906
2022-11-08T06:35:27.465Z,9.711800
2022-11-08T06:36:28.892Z,9.711565
2022-11-08T06:37:25.533Z,9.711496
2022-11-08T06:38:25.528Z,9.711504
2022-11-08T06:39:26.439Z,9.711551
2022-11-08T06:40:25.524Z,9.711633
2022-11-08T06:41:25.487Z,9.711694
2022-11-08T06:42:25.486Z,9.711703
2022-11-08T06:43:25.881Z,9.711656
2022-11-08T06:44:25.470Z,9.711639
2022-11-08T06:45:25.465Z,9.711685
2022-11-08T06:46:25.452Z,9.711734
2022-11-08T06:47:25.551Z,9.711901
2022-11-08T06:48:25.429Z,9.712175
2022-11-08T06:49:25.439Z,9.712079
2022-11-08T06:50:26.997Z,9.711680
2022-11-08T06:51:25.433Z,9.711726
2022-11-08T06:52:25.399Z,9.711818
2022-11-08T06:53:26.908Z,9.711827
2022-11-08T06:54:27.090Z,9.711826
2022-11-08T06:55:26.398Z,9.711977
2022-11-08T06:56:25.895Z,9.712087
2022-11-08T06:57:26.922Z,9.712305
2022-11-08T06:58:25.903Z,9.712263
2022-11-08T06:59:25.383Z,9.712386
2022-11-08T07:00:25.981Z,9.711929
2022-11-08T07:01:27.173Z,9.711724
2022-11-08T07:02:25.617Z,9.711671
2022-11-08T07:03:25.316Z,9.711611
2022-11-08T07:04:25.312Z,9.711532
2022-11-08T07:05:26.901Z,9.711701
2022-11-08T07:06:28.896Z,9.711687
2022-11-08T07:12:32.637Z,9.710859
2022-11-08T07:13:32.635Z,9.710621
2022-11-08T07:14:32.628Z,9.711337
2022-11-08T07:15:32.628Z,9.711433
2022-11-08T07:16:34.501Z,9.711721
2022-11-08T07:17:38.489Z,9.711691
2022-11-08T07:18:34.617Z,9.711575
2022-11-08T07:19:32.596Z,9.711585
2022-11-08T07:20:32.577Z,9.711547
2022-11-08T07:21:32.629Z,9.711617
2022-11-08T07:22:32.600Z,9.711662
2022-11-08T07:23:32.554Z,9.711621
2022-11-08T07:24:32.542Z,9.711611
2022-11-08T07:25:32.595Z,9.711535
2022-11-08T07:26:32.525Z,9.711561
2022-11-08T07:27:32.518Z,9.711607
2022-11-08T07:28:33.444Z,9.711558
2022-11-08T07:29:32.495Z,9.711722
2022-11-08T07:30:34.448Z,9.711752
2022-11-08T07:31:32.484Z,9.711939
2022-11-08T07:32:32.473Z,9.711843
2022-11-08T07:33:32.465Z,9.711743
2022-11-08T07:34:32.456Z,9.711644
2022-11-08T07:35:32.463Z,9.711443
2022-11-08T07:36:32.449Z,9.711470
2022-11-08T07:37:34.934Z,9.711419
2022-11-08T07:38:33.426Z,9.711582
2022-11-08T07:39:34.031Z,9.711662
2022-11-08T07:40:34.013Z,9.711699
2022-11-08T07:41:32.406Z,9.712002
2022-11-08T07:42:50.011Z,9.711671
2022-11-08T07:43:34.388Z,9.712097
2022-11-08T07:44:33.373Z,9.712273
2022-11-08T07:45:32.367Z,9.712043
2022-11-08T07:46:32.381Z,9.712142
2022-11-08T07:47:32.379Z,9.712053
2022-11-08T07:48:32.348Z,9.712255
2022-11-08T07:49:32.955Z,9.711881
2022-11-08T07:50:32.329Z,9.712235
2022-11-08T07:51:32.324Z,9.712470
2022-11-08T07:52:32.336Z,9.711715
2022-11-08T07:53:32.307Z,9.711615
2022-11-08T07:54:32.296Z,9.711810
2022-11-08T07:55:32.301Z,9.711759
2022-11-08T07:56:32.284Z,9.711413
2022-11-08T07:57:32.276Z,9.712069
2022-11-08T07:58:33.942Z,9.711978
2022-11-08T07:59:32.258Z,9.711619
2022-11-08T08:00:32.250Z,9.711498
2022-11-08T08:01:32.308Z,9.711374
2022-11-08T08:02:32.307Z,9.711257
2022-11-08T08:03:33.072Z,9.711341
2022-11-08T08:04:32.225Z,9.711683
2022-11-08T08:05:33.939Z,9.711658
2022-11-08T08:07:05.969Z,9.711818
2022-11-08T08:07:34.044Z,9.711723
2022-11-08T08:09:04.524Z,9.711917
2022-11-08T08:09:32.992Z,9.712066
2022-11-08T08:22:52.071Z,9.711633
2022-11-08T08:23:54.002Z,9.711659
2022-11-08T08:24:52.062Z,9.711597
2022-11-08T08:25:52.053Z,9.711761
2022-11-08T08:26:52.047Z,9.711725
2022-11-08T08:27:52.037Z,9.711750
2022-11-08T08:28:52.062Z,9.711811
2022-11-08T08:29:55.906Z,9.712007
2022-11-08T08:30:53.010Z,9.711826
2022-11-08T08:31:52.984Z,9.711646
2022-11-08T08:33:08.508Z,9.711658
2022-11-08T08:33:54.005Z,9.711514
2022-11-08T08:34:51.986Z,9.711525
2022-11-08T08:35:53.916Z,9.711572
2022-11-08T08:36:51.975Z,9.711945
2022-11-08T08:37:51.986Z,9.712229
2022-11-08T08:38:52.908Z,9.711959
2022-11-08T08:39:51.949Z,9.711891
2022-11-08T08:40:51.958Z,9.711741
2022-11-08T08:41:51.944Z,9.711814
2022-11-08T08:42:51.945Z,9.711681
2022-11-08T08:43:51.942Z,9.711536
2022-11-08T08:44:51.916Z,9.711496
2022-11-08T08:45:51.890Z,9.711597
2022-11-08T08:46:53.550Z,9.711688
2022-11-08T08:47:51.904Z,9.711649
2022-11-08T08:48:51.876Z,9.711588
2022-11-08T08:49:51.875Z,9.711382
2022-11-08T08:50:51.877Z,9.711370
2022-11-08T08:51:51.869Z,9.711170
2022-11-08T08:52:51.867Z,9.711391
2022-11-08T08:53:51.843Z,9.711502
2022-11-08T08:54:51.821Z,9.711520
2022-11-08T08:55:51.812Z,9.711923
2022-11-08T08:56:51.804Z,9.711837
2022-11-08T08:57:51.830Z,9.711756
2022-11-08T09:01:53.778Z,9.711536
2022-11-08T09:02:51.762Z,9.711594
2022-11-08T09:03:51.749Z,9.711613
2022-11-08T09:04:51.745Z,9.711563
2022-11-08T09:05:51.745Z,9.711189
2022-11-08T09:06:51.864Z,9.711218
2022-11-08T09:07:51.730Z,9.711350
2022-11-08T09:08:51.724Z,9.712025
2022-11-08T09:09:51.702Z,9.712148
2022-11-08T09:10:51.701Z,9.711938
2022-11-08T09:11:53.496Z,9.712048
2022-11-08T09:12:52.422Z,9.712812
2022-11-08T09:13:51.705Z,9.712408
2022-11-08T09:14:51.674Z,9.712102
2022-11-08T09:15:51.670Z,9.712004
2022-11-08T09:16:51.650Z,9.711607
2022-11-08T09:17:53.415Z,9.711441
2022-11-08T09:18:51.664Z,9.711472
2022-11-08T09:19:56.955Z,9.711323
2022-11-08T09:20:53.529Z,9.711049
2022-11-08T09:21:51.635Z,9.711329
2022-11-08T09:22:52.017Z,9.711922
2022-11-08T09:23:53.446Z,9.711605
2022-11-08T09:24:51.590Z,9.711284
2022-11-08T09:25:51.582Z,9.711266
2022-11-08T09:26:51.566Z,9.711423
2022-11-08T09:27:51.568Z,9.711618
2022-11-08T09:28:52.423Z,9.711616
2022-11-08T09:29:51.539Z,9.711479
2022-11-08T09:30:51.556Z,9.711535
2022-11-08T09:31:51.529Z,9.711668
2022-11-08T09:33:00.878Z,9.711632
2022-11-08T09:33:53.591Z,9.711609
2022-11-08T09:34:51.532Z,9.711453
2022-11-08T09:35:51.508Z,9.711430
2022-11-08T09:36:51.490Z,9.711358
2022-11-08T09:37:51.502Z,9.711122
2022-11-08T09:38:52.434Z,9.711170
2022-11-08T09:39:51.487Z,9.711177
2022-11-08T09:40:51.464Z,9.711108
2022-11-08T09:41:55.657Z,9.711549
2022-11-08T09:42:52.440Z,9.711327
2022-11-08T09:43:51.434Z,9.711416
2022-11-08T09:44:51.444Z,9.711512
2022-11-08T09:45:51.436Z,9.711405
2022-11-08T09:46:51.419Z,9.711403
2022-11-08T09:47:53.098Z,9.711263
2022-11-08T09:48:51.397Z,9.711571
2022-11-08T09:49:51.393Z,9.711748
2022-11-08T09:50:52.390Z,9.711453
2022-11-08T09:51:51.368Z,9.711603
2022-11-08T09:52:52.921Z,9.711539
2022-11-08T09:53:52.931Z,9.712121
2022-11-08T09:54:51.351Z,9.712199
2022-11-08T09:55:51.377Z,9.711983
2022-11-08T09:56:51.362Z,9.711827
2022-11-08T09:57:51.334Z,9.711891
2022-11-08T09:58:51.433Z,9.711669
2022-11-08T09:59:51.324Z,9.711866
2022-11-08T10:00:51.482Z,9.712024
2022-11-08T10:01:52.964Z,9.711815
2022-11-08T10:02:55.014Z,9.711690
2022-11-08T10:03:51.283Z,9.711680
2022-11-08T10:04:52.930Z,9.711759
2022-11-08T10:05:52.933Z,9.711763
2022-11-08T10:06:51.314Z,9.711657
2022-11-08T10:07:52.302Z,9.711627
2022-11-08T10:08:51.238Z,9.711702
2022-11-08T10:09:51.233Z,9.711674
2022-11-08T10:10:51.232Z,9.711622
2022-11-08T10:11:51.240Z,9.711651
2022-11-08T10:12:51.204Z,9.711629
2022-11-08T10:13:51.191Z,9.711630
2022-11-08T10:14:54.355Z,9.711653
2022-11-08T10:15:52.182Z,9.711646
2022-11-08T10:16:51.174Z,9.711596
2022-11-08T10:17:51.169Z,9.711535
2022-11-08T10:18:51.148Z,9.711575
2022-11-08T10:19:51.142Z,9.711702
2022-11-08T10:20:51.139Z,9.711647
2022-11-08T10:21:51.936Z,9.711768
2022-11-08T10:22:51.127Z,9.711720
2022-11-08T10:23:51.126Z,9.711785
2022-11-08T10:24:51.118Z,9.711745
2022-11-08T10:25:51.115Z,9.711709
2022-11-08T10:26:51.104Z,9.711595
2022-11-08T10:27:51.084Z,9.711792
2022-11-08T10:28:51.103Z,9.711712
2022-11-08T10:29:51.942Z,9.711761
2022-11-08T10:30:52.974Z,9.711736
2022-11-08T10:31:51.058Z,9.711626
2022-11-08T10:32:51.066Z,9.711592
2022-11-08T10:33:51.044Z,9.711727
2022-11-08T10:34:51.035Z,9.711694
2022-11-08T10:35:51.038Z,9.711779
2022-11-08T10:36:51.024Z,9.711761
2022-11-08T10:37:51.014Z,9.711725
2022-11-08T10:38:51.012Z,9.711641
2022-11-08T10:39:51.000Z,9.711679
2022-11-08T10:40:50.997Z,9.711720
2022-11-08T10:41:51.001Z,9.711659
2022-11-08T10:42:50.972Z,9.711585
2022-11-08T10:43:50.966Z,9.711590
2022-11-08T10:44:50.963Z,9.711566
2022-11-08T10:45:50.997Z,9.711748
2022-11-08T10:46:50.955Z,9.711744
2022-11-08T10:47:52.440Z,9.711782
2022-11-08T10:48:50.929Z,9.711802
2022-11-08T10:49:50.935Z,9.711923
2022-11-08T10:50:50.915Z,9.712132
2022-11-08T10:51:52.519Z,9.712291
2022-11-08T10:52:50.987Z,9.712129
2022-11-08T10:53:50.896Z,9.712169
2022-11-08T10:54:50.882Z,9.711932
2022-11-08T10:55:50.869Z,9.711825
2022-11-08T10:56:50.918Z,9.711710
2022-11-08T10:57:51.842Z,9.711913
2022-11-08T10:58:50.850Z,9.712013
2022-11-08T10:59:50.833Z,9.711953
2022-11-08T11:00:50.824Z,9.712052
2022-11-08T11:01:50.860Z,9.711927
2022-11-08T11:02:50.815Z,9.711883
2022-11-08T11:03:51.534Z,9.711869
2022-11-08T11:04:52.528Z,9.711845
2022-11-08T11:05:50.796Z,9.711884
2022-11-08T11:06:50.824Z,9.711876
2022-11-08T11:07:50.771Z,9.711764
2022-11-08T11:08:51.122Z,9.711677
2022-11-08T11:09:50.758Z,9.711721
2022-11-08T11:10:50.785Z,9.711692
2022-11-08T11:11:50.749Z,9.711796
2022-11-08T11:12:50.757Z,9.711799
2022-11-08T11:13:50.729Z,9.711848
2022-11-08T11:14:50.731Z,9.711814
2022-11-08T11:15:51.553Z,9.711813
2022-11-08T11:16:50.704Z,9.711907
2022-11-08T11:17:50.701Z,9.711748
2022-11-08T11:18:50.728Z,9.711761
2022-11-08T11:19:50.674Z,9.711940
2022-11-08T11:20:50.671Z,9.711806
2022-11-08T11:21:50.662Z,9.711784
2022-11-08T11:22:50.675Z,9.711843
2022-11-08T11:23:50.650Z,9.711818
2022-11-08T11:24:50.834Z,9.711739
2022-11-08T11:25:50.636Z,9.711776
2022-11-08T11:26:50.630Z,9.711700
2022-11-08T11:27:50.618Z,9.711684
2022-11-08T11:28:50.613Z,9.711680
2022-11-08T11:29:50.599Z,9.711712
2022-11-08T11:30:50.592Z,9.711710
2022-11-08T11:31:50.603Z,9.711777
2022-11-08T11:32:50.587Z,9.711759
2022-11-08T11:33:50.578Z,9.711771
2022-11-08T11:34:50.628Z,9.711752
2022-11-08T11:35:50.568Z,9.711879
2022-11-08T11:36:51.543Z,9.712027
2022-11-08T11:37:50.539Z,9.711914
2022-11-08T11:38:50.577Z,9.711861
2022-11-08T11:39:50.529Z,9.711932
2022-11-08T11:40:50.603Z,9.711895
2022-11-08T11:41:50.516Z,9.711946
2022-11-08T11:42:50.501Z,9.711914
2022-11-08T11:43:50.492Z,9.711802
2022-11-08T11:44:50.490Z,9.711793
2022-11-08T11:45:50.480Z,9.711910
2022-11-08T11:46:50.469Z,9.711894
2022-11-08T11:47:50.477Z,9.711857
2022-11-08T11:48:50.467Z,9.711937
2022-11-08T11:49:50.455Z,9.711904
2022-11-08T11:50:50.494Z,9.711948
2022-11-08T11:51:50.432Z,9.711900
2022-11-08T11:52:50.431Z,9.711802
2022-11-08T11:53:50.413Z,9.711815
2022-11-08T11:54:50.432Z,9.711804
2022-11-08T11:55:50.400Z,9.711853
2022-11-08T11:56:50.392Z,9.711912
2022-11-08T11:57:50.428Z,9.711859
2022-11-08T11:58:50.381Z,9.711902
2022-11-08T11:59:50.379Z,9.711947
2022-11-08T12:00:50.386Z,9.712019
2022-11-08T12:01:50.397Z,9.712057
2022-11-08T12:02:50.352Z,9.712303
2022-11-08T12:03:50.341Z,9.712170
2022-11-08T12:04:50.342Z,9.712297
2022-11-08T12:05:50.321Z,9.711725
2022-11-08T12:06:50.357Z,9.711919
2022-11-08T12:07:50.299Z,9.711857
2022-11-08T12:08:50.400Z,9.711891
2022-11-08T12:09:50.305Z,9.711849
2022-11-08T12:10:50.309Z,9.711926
2022-11-08T12:11:50.300Z,9.712090
2022-11-08T12:12:51.086Z,9.712012
2022-11-08T12:13:54.155Z,9.712132
2022-11-08T12:14:53.051Z,9.712089
2022-11-08T12:15:54.005Z,9.711807
2022-11-08T12:16:50.236Z,9.711749
2022-11-08T12:17:50.220Z,9.711793
2022-11-08T12:18:50.666Z,9.711830
2022-11-08T12:19:50.216Z,9.711933
2022-11-08T12:20:50.199Z,9.711956
2022-11-08T12:21:50.200Z,9.711785
2022-11-08T12:22:50.985Z,9.711861
2022-11-08T12:23:50.187Z,9.712034
2022-11-08T12:24:50.183Z,9.712090
2022-11-08T12:25:50.165Z,9.711791
2022-11-08T12:26:50.157Z,9.711969
2022-11-08T12:27:52.065Z,9.712085
2022-11-08T12:28:51.199Z,9.711997
2022-11-08T12:29:50.138Z,9.711971
2022-11-08T12:30:50.129Z,9.711701